Time;durP1;ratioP1;P1;durP2;ratioP2;P2;SDS_P1;SDS_P2;PMS_P1;PMS_P2;Temp;Humidity;BMP_temperature;BMP_pressure;BME280_temperature;BME280_humidity;BME280_pressure;Samples;Min_cycle;Max_cycle;Signal;HPM_P1;HPM_P2
2023/01/13 00:00:23;;;;;;;0.90;0.37;;;;;;;;;;5089861;28;20201;-44
2023/01/13 00:02:50;;;;;;;1.27;0.53;;;;;;;;;;5104324;28;20219;-33
2023/01/13 00:05:17;;;;;;;0.60;0.40;;;;;;;;;;5113446;28;20325;-38
2023/01/13 00:07:45;;;;;;;0.93;0.40;;;;;;;;;;5085140;28;20199;-41
2023/01/13 00:10:12;;;;;;;2.80;0.77;;;;;;;;;;5083937;28;20205;-36
2023/01/13 00:12:42;;;;;;;0.83;0.60;;;;;;;;;;5090834;28;20231;-40
2023/01/13 00:15:10;;;;;;;2.60;0.53;;;;;;;;;;5077055;28;20559;-35
2023/01/13 00:17:40;;;;;;;0.70;0.50;;;;;;;;;;5079420;28;20208;-38
2023/01/13 00:20:10;;;;;;;0.97;0.37;;;;;;;;;;5082350;28;20201;-39
2023/01/13 00:22:37;;;;;;;1.60;0.43;;;;;;;;;;5072182;28;20233;-37
2023/01/13 00:25:05;;;;;;;1.47;0.40;;;;;;;;;;5081629;28;20228;-38
2023/01/13 00:27:35;;;;;;;1.70;0.47;;;;;;;;;;5090463;28;20286;-34
2023/01/13 00:30:03;;;;;;;0.80;0.47;;;;;;;;;;5083332;28;20196;-32
2023/01/13 00:32:30;;;;;;;1.07;0.50;;;;;;;;;;5090556;28;20231;-34
2023/01/13 00:34:58;;;;;;;1.43;0.60;;;;;;;;;;5113522;28;20211;-38
2023/01/13 00:37:25;;;;;;;1.07;0.40;;;;;;;;;;5092186;28;20204;-36
2023/01/13 00:39:52;;;;;;;0.70;0.30;;;;;;;;;;5098766;28;20207;-36
2023/01/13 00:45:20;;;;;;;1.23;0.60;;;;;;;;;;5047109;28;20229;-38
2023/01/13 00:47:47;;;;;;;1.90;0.60;;;;;;;;;;5044965;28;20197;-40
2023/01/13 00:50:14;;;;;;;0.50;0.50;;;;;;;;;;5071229;28;20205;-37
2023/01/13 00:52:41;;;;;;;2.77;0.30;;;;;;;;;;5089352;28;20309;-39
2023/01/13 00:55:09;;;;;;;1.83;0.60;;;;;;;;;;5106331;28;20195;-37
2023/01/13 00:57:36;;;;;;;0.50;0.30;;;;;;;;;;5112393;28;20211;-35
2023/01/13 01:00:03;;;;;;;1.03;0.27;;;;;;;;;;5086496;28;20207;-32
2023/01/13 01:02:32;;;;;;;0.57;0.40;;;;;;;;;;5100967;28;20228;-40
2023/01/13 01:04:59;;;;;;;0.73;0.43;;;;;;;;;;5112079;28;20206;-35
2023/01/13 01:07:26;;;;;;;2.00;0.60;;;;;;;;;;5090517;28;20200;-34
2023/01/13 01:09:54;;;;;;;1.17;0.50;;;;;;;;;;5097078;28;20284;-35
2023/01/13 01:12:21;;;;;;;1.33;0.40;;;;;;;;;;5107868;28;20231;-34
2023/01/13 01:14:48;;;;;;;1.43;0.77;;;;;;;;;;5084180;28;20207;-37
2023/01/13 01:17:15;;;;;;;0.70;0.50;;;;;;;;;;5090543;28;20228;-36
2023/01/13 01:19:43;;;;;;;1.67;0.50;;;;;;;;;;5089576;28;20200;-36
2023/01/13 01:22:11;;;;;;;1.83;0.60;;;;;;;;;;5085612;28;20236;-39
2023/01/13 01:24:38;;;;;;;0.87;0.40;;;;;;;;;;5079986;28;20216;-36
2023/01/13 01:27:05;;;;;;;1.43;0.40;;;;;;;;;;5096738;28;20288;-35
2023/01/13 01:29:32;;;;;;;1.33;0.43;;;;;;;;;;5085206;28;20216;-39
2023/01/13 01:31:59;;;;;;;3.30;0.40;;;;;;;;;;5102134;28;20246;-38
2023/01/13 01:34:26;;;;;;;1.17;0.40;;;;;;;;;;5111902;28;20204;-36
2023/01/13 01:36:55;;;;;;;1.90;0.40;;;;;;;;;;5089749;28;20205;-39
2023/01/13 01:39:22;;;;;;;0.50;0.50;;;;;;;;;;5070636;28;20219;-33
2023/01/13 01:44:53;;;;;;;0.43;0.43;;;;;;;;;;5059996;28;20212;-38
2023/01/13 01:47:20;;;;;;;2.17;0.50;;;;;;;;;;5095052;28;20220;-39
2023/01/13 01:49:48;;;;;;;1.00;0.40;;;;;;;;;;5070156;28;20235;-41
2023/01/13 01:52:20;;;;;;;1.73;0.43;;;;;;;;;;5082462;28;20216;-34
2023/01/13 01:54:48;;;;;;;0.37;0.30;;;;;;;;;;5083856;28;20205;-37
2023/01/13 01:57:18;;;;;;;1.37;0.60;;;;;;;;;;5091051;28;20665;-36
2023/01/13 01:59:46;;;;;;;1.27;0.50;;;;;;;;;;5084151;28;20418;-38
2023/01/13 02:02:13;;;;;;;0.93;0.30;;;;;;;;;;5076039;28;20227;-34
2023/01/13 02:04:49;;;;;;;0.77;0.40;;;;;;;;;;5095870;28;20287;-33
2023/01/13 02:07:18;;;;;;;1.07;0.40;;;;;;;;;;5087918;28;20218;-38
2023/01/13 02:09:45;;;;;;;0.27;0.23;;;;;;;;;;5074522;28;20204;-38
2023/01/13 02:12:31;;;;;;;2.37;0.60;;;;;;;;;;5094891;28;20310;-35
2023/01/13 02:15:01;;;;;;;0.30;0.30;;;;;;;;;;5086267;28;20206;-35
2023/01/13 02:17:36;;;;;;;0.30;0.30;;;;;;;;;;5107165;28;20196;-35
2023/01/13 02:20:23;;;;;;;0.53;0.27;;;;;;;;;;5089612;28;20207;-37
2023/01/13 02:24:52;;;;;;;0.50;0.30;;;;;;;;;;5073251;28;20212;-39
2023/01/13 02:26:09;;;;;;;0.87;0.60;;;;;;;;;;5096831;28;20219;-36
2023/01/13 02:31:40;;;;;;;1.03;0.50;;;;;;;;;;5094941;28;20216;-39
2023/01/13 02:31:41;;;;;;;0.90;0.50;;;;;;;;;;5087951;28;20226;-40
2023/01/13 02:34:10;;;;;;;0.60;0.50;;;;;;;;;;5085000;28;20607;-38
2023/01/13 02:36:40;;;;;;;1.40;0.50;;;;;;;;;;5086603;28;20202;-35
2023/01/13 02:39:12;;;;;;;0.70;0.63;;;;;;;;;;5082250;28;20209;-32
2023/01/13 02:44:30;;;;;;;0.73;0.43;;;;;;;;;;5084460;28;20685;-33
2023/01/13 02:47:01;;;;;;;0.50;0.50;;;;;;;;;;5085863;28;20220;-35
2023/01/13 02:49:32;;;;;;;0.87;0.57;;;;;;;;;;5099885;28;20512;-40
2023/01/13 02:52:02;;;;;;;0.70;0.43;;;;;;;;;;5084683;28;20220;-38
2023/01/13 02:54:30;;;;;;;2.83;0.40;;;;;;;;;;5094356;28;20290;-37
2023/01/13 02:56:58;;;;;;;1.53;0.30;;;;;;;;;;5096881;28;20202;-40
2023/01/13 02:59:27;;;;;;;0.40;0.30;;;;;;;;;;5085643;28;20570;-39
2023/01/13 03:01:56;;;;;;;0.43;0.40;;;;;;;;;;5093319;28;20212;-35
2023/01/13 03:04:41;;;;;;;0.37;0.37;;;;;;;;;;5101259;28;20208;-37
2023/01/13 03:07:13;;;;;;;0.73;0.40;;;;;;;;;;5089849;28;20216;-38
2023/01/13 03:09:42;;;;;;;1.90;0.40;;;;;;;;;;5073015;28;20213;-31
2023/01/13 03:12:14;;;;;;;0.60;0.30;;;;;;;;;;5096638;28;20218;-36
2023/01/13 03:14:43;;;;;;;0.97;0.37;;;;;;;;;;5086541;28;20215;-37
2023/01/13 03:17:17;;;;;;;0.40;0.40;;;;;;;;;;5083630;28;20208;-41
2023/01/13 03:19:47;;;;;;;1.50;0.40;;;;;;;;;;5090278;28;20200;-32
2023/01/13 03:22:22;;;;;;;1.80;0.60;;;;;;;;;;5079757;28;20225;-35
2023/01/13 03:24:52;;;;;;;1.30;0.40;;;;;;;;;;5087852;28;20210;-41
2023/01/13 03:27:24;;;;;;;2.03;0.40;;;;;;;;;;5089109;28;20220;-40
2023/01/13 03:29:55;;;;;;;0.93;0.40;;;;;;;;;;5085838;28;20200;-36
2023/01/13 03:32:25;;;;;;;1.07;0.30;;;;;;;;;;5096386;28;20538;-36
2023/01/13 03:34:53;;;;;;;2.27;0.60;;;;;;;;;;5110130;28;20204;-37
2023/01/13 03:37:25;;;;;;;1.37;0.33;;;;;;;;;;5089792;28;20208;-37
2023/01/13 03:39:54;;;;;;;0.33;0.33;;;;;;;;;;5080981;28;20220;-39
2023/01/13 03:42:23;;;;;;;0.77;0.33;;;;;;;;;;5090287;28;20251;-35
2023/01/13 03:44:53;;;;;;;0.40;0.40;;;;;;;;;;5081271;28;20204;-36
2023/01/13 03:47:22;;;;;;;0.40;0.40;;;;;;;;;;5098079;28;20220;-36
2023/01/13 03:49:53;;;;;;;2.67;0.37;;;;;;;;;;5093005;28;20205;-39
2023/01/13 03:52:24;;;;;;;1.00;0.30;;;;;;;;;;5093567;28;20354;-34
2023/01/13 03:54:53;;;;;;;0.60;0.40;;;;;;;;;;5079542;28;20203;-35
2023/01/13 03:57:21;;;;;;;1.20;0.37;;;;;;;;;;5088917;28;20189;-33
2023/01/13 03:59:50;;;;;;;0.50;0.50;;;;;;;;;;5086667;28;20206;-32
2023/01/13 04:02:20;;;;;;;0.37;0.37;;;;;;;;;;5104541;28;20223;-39
2023/01/13 04:04:49;;;;;;;0.77;0.50;;;;;;;;;;5113817;28;20206;-40
2023/01/13 04:07:20;;;;;;;0.70;0.30;;;;;;;;;;5095813;28;20232;-38
2023/01/13 04:09:51;;;;;;;3.87;0.80;;;;;;;;;;5087635;28;20204;-32
2023/01/13 04:12:59;;;;;;;2.40;0.40;;;;;;;;;;5105467;28;20240;-35
2023/01/13 04:15:14;;;;;;;1.23;0.40;;;;;;;;;;5083717;28;20205;-40
2023/01/13 04:17:41;;;;;;;1.53;0.53;;;;;;;;;;5091760;28;20209;-42
2023/01/13 04:20:09;;;;;;;0.40;0.40;;;;;;;;;;5092428;28;20196;-37
2023/01/13 04:22:38;;;;;;;1.80;0.57;;;;;;;;;;5074614;28;20233;-34
2023/01/13 04:25:07;;;;;;;1.10;0.50;;;;;;;;;;5092778;28;20200;-33
2023/01/13 04:27:35;;;;;;;0.50;0.47;;;;;;;;;;5104852;28;20334;-43
2023/01/13 04:30:02;;;;;;;1.13;0.23;;;;;;;;;;5085490;28;20243;-35
2023/01/13 04:32:29;;;;;;;1.50;0.50;;;;;;;;;;5090983;28;20236;-43
2023/01/13 04:34:56;;;;;;;0.67;0.50;;;;;;;;;;5113744;27;20272;-32
2023/01/13 04:37:23;;;;;;;1.37;0.53;;;;;;;;;;5094639;28;20230;-32
2023/01/13 04:39:50;;;;;;;0.47;0.30;;;;;;;;;;5092285;28;20212;-37
2023/01/13 04:42:19;;;;;;;0.40;0.40;;;;;;;;;;5096569;28;20229;-35
2023/01/13 04:44:46;;;;;;;0.20;0.20;;;;;;;;;;5091770;28;20203;-39
2023/01/13 04:47:13;;;;;;;1.73;0.30;;;;;;;;;;5095891;28;20231;-35
2023/01/13 04:49:40;;;;;;;1.77;0.67;;;;;;;;;;5114342;28;20211;-38
2023/01/13 04:52:07;;;;;;;1.97;0.60;;;;;;;;;;5104746;28;20229;-38
2023/01/13 04:54:36;;;;;;;0.40;0.30;;;;;;;;;;5099710;28;20204;-30
2023/01/13 04:57:03;;;;;;;3.80;0.40;;;;;;;;;;5096976;28;20196;-39
2023/01/13 04:59:31;;;;;;;0.40;0.40;;;;;;;;;;5080937;28;20211;-36
2023/01/13 05:01:58;;;;;;;1.90;0.40;;;;;;;;;;5096219;28;20230;-39
2023/01/13 05:04:26;;;;;;;0.90;0.40;;;;;;;;;;5111419;28;20204;-43
2023/01/13 05:06:53;;;;;;;0.50;0.40;;;;;;;;;;5097831;27;20284;-38
2023/01/13 05:09:20;;;;;;;1.30;0.30;;;;;;;;;;5091386;28;20209;-39
2023/01/13 05:17:20;;;;;;;0.40;0.40;;;;;;;;;;5104059;28;20268;-33
2023/01/13 05:19:47;;;;;;;2.40;0.33;;;;;;;;;;5071212;28;20220;-33
2023/01/13 05:27:44;;;;;;;1.53;0.60;;;;;;;;;;5098378;28;20224;-37
2023/01/13 05:30:13;;;;;;;0.37;0.37;;;;;;;;;;5081988;28;20235;-43
2023/01/13 05:32:40;;;;;;;0.20;0.20;;;;;;;;;;5089221;28;20221;-39
2023/01/13 05:35:07;;;;;;;0.73;0.20;;;;;;;;;;5091230;28;20286;-38
2023/01/13 05:37:34;;;;;;;4.70;0.53;;;;;;;;;;5080914;28;20284;-36
2023/01/13 05:45:32;;;;;;;0.80;0.27;;;;;;;;;;5063956;28;20216;-35
2023/01/13 05:47:59;;;;;;;0.90;0.20;;;;;;;;;;5101456;28;20223;-38
2023/01/13 05:50:26;;;;;;;0.10;0.10;;;;;;;;;;5110338;28;20204;-37
2023/01/13 05:52:53;;;;;;;0.70;0.20;;;;;;;;;;5111163;28;20227;-35
2023/01/13 05:55:20;;;;;;;0.20;0.10;;;;;;;;;;5080757;28;20201;-37
2023/01/13 05:57:47;;;;;;;0.50;0.23;;;;;;;;;;5091005;28;20200;-39
2023/01/13 06:00:15;;;;;;;2.37;0.20;;;;;;;;;;5081553;28;20679;-37
2023/01/13 06:02:43;;;;;;;0.20;0.20;;;;;;;;;;5089209;28;20224;-36
2023/01/13 06:05:10;;;;;;;0.20;0.20;;;;;;;;;;5089887;28;20205;-39
2023/01/13 06:07:37;;;;;;;0.13;0.13;;;;;;;;;;5077880;28;20230;-37
2023/01/13 06:10:05;;;;;;;0.73;0.20;;;;;;;;;;5084039;28;20201;-34
2023/01/13 06:12:32;;;;;;;1.30;0.40;;;;;;;;;;5098474;28;20221;-36
2023/01/13 06:14:59;;;;;;;0.73;0.43;;;;;;;;;;5084470;28;20216;-32
2023/01/13 06:17:26;;;;;;;1.47;0.50;;;;;;;;;;5087404;28;20205;-33
2023/01/13 06:19:54;;;;;;;0.20;0.20;;;;;;;;;;5109870;28;20203;-38
2023/01/13 06:22:23;;;;;;;0.40;0.20;;;;;;;;;;5110741;28;20227;-40
2023/01/13 06:24:52;;;;;;;1.27;0.20;;;;;;;;;;5085152;28;20205;-40
2023/01/13 06:27:19;;;;;;;0.10;0.10;;;;;;;;;;5097626;28;20231;-34
2023/01/13 06:29:46;;;;;;;0.47;0.30;;;;;;;;;;5081978;28;20196;-36
2023/01/13 06:32:16;;;;;;;0.40;0.20;;;;;;;;;;5093548;28;20220;-38
2023/01/13 06:34:45;;;;;;;0.10;0.10;;;;;;;;;;5089630;28;20196;-37
2023/01/13 06:37:15;;;;;;;0.20;0.20;;;;;;;;;;5090145;28;20208;-34
2023/01/13 06:39:43;;;;;;;0.27;0.23;;;;;;;;;;5072712;28;20216;-36
2023/01/13 06:44:55;;;;;;;0.20;0.20;;;;;;;;;;5082210;28;20199;-31
2023/01/13 06:47:22;;;;;;;0.20;0.20;;;;;;;;;;5088719;28;20228;-37
2023/01/13 06:49:49;;;;;;;0.20;0.10;;;;;;;;;;5089531;28;20195;-30
2023/01/13 06:52:18;;;;;;;0.30;0.30;;;;;;;;;;5081117;28;20227;-34
2023/01/13 06:54:45;;;;;;;0.57;0.30;;;;;;;;;;5083456;28;20214;-39
2023/01/13 06:57:12;;;;;;;0.70;0.17;;;;;;;;;;5092765;28;20201;-34
2023/01/13 06:59:39;;;;;;;2.43;0.30;;;;;;;;;;5075577;28;20207;-33
2023/01/13 07:02:07;;;;;;;0.83;0.20;;;;;;;;;;5088441;28;20224;-37
2023/01/13 07:04:34;;;;;;;0.03;0.03;;;;;;;;;;5089322;28;20200;-40
2023/01/13 07:07:01;;;;;;;0.00;0.00;;;;;;;;;;5083879;28;20244;-37
2023/01/13 07:09:29;;;;;;;2.20;0.30;;;;;;;;;;5090462;28;20208;-33
2023/01/13 07:11:56;;;;;;;0.47;0.20;;;;;;;;;;5100585;28;20223;-38
2023/01/13 07:17:08;;;;;;;0.43;0.20;;;;;;;;;;5091469;28;20610;-40
2023/01/13 07:19:35;;;;;;;1.70;0.20;;;;;;;;;;5111859;28;20206;-40
2023/01/13 07:22:04;;;;;;;0.10;0.10;;;;;;;;;;5100335;28;20221;-40
2023/01/13 07:24:32;;;;;;;1.07;0.30;;;;;;;;;;5070475;28;20216;-36
2023/01/13 07:26:59;;;;;;;0.33;0.20;;;;;;;;;;5074245;28;20652;-36
2023/01/13 07:29:26;;;;;;;0.13;0.13;;;;;;;;;;5072529;28;20224;-37
2023/01/13 07:31:53;;;;;;;0.37;0.20;;;;;;;;;;5092167;28;20247;-38
2023/01/13 07:34:21;;;;;;;0.17;0.17;;;;;;;;;;5093859;28;20201;-36
2023/01/13 07:36:48;;;;;;;0.23;0.23;;;;;;;;;;5094254;28;20201;-38
2023/01/13 07:39:15;;;;;;;3.60;0.20;;;;;;;;;;5089251;28;20247;-38
2023/01/13 07:44:28;;;;;;;0.20;0.20;;;;;;;;;;5092656;28;20211;-35
2023/01/13 07:46:55;;;;;;;0.17;0.13;;;;;;;;;;5099149;28;20200;-32
2023/01/13 07:49:23;;;;;;;0.53;0.17;;;;;;;;;;5101705;28;20200;-39
2023/01/13 07:51:50;;;;;;;0.20;0.20;;;;;;;;;;5088334;28;20236;-37
2023/01/13 07:54:17;;;;;;;0.10;0.10;;;;;;;;;;5089797;28;20204;-36
2023/01/13 07:56:45;;;;;;;0.10;0.10;;;;;;;;;;5103649;28;20196;-39
2023/01/13 07:59:12;;;;;;;0.23;0.10;;;;;;;;;;5094192;28;20201;-35
2023/01/13 08:01:39;;;;;;;0.77;0.30;;;;;;;;;;5096817;28;20227;-36
2023/01/13 08:04:06;;;;;;;0.43;0.30;;;;;;;;;;5115372;28;20204;-31
2023/01/13 08:06:35;;;;;;;0.87;0.30;;;;;;;;;;5096118;28;20211;-39
2023/01/13 08:09:02;;;;;;;0.10;0.10;;;;;;;;;;5087271;28;20287;-34
2023/01/13 08:11:29;;;;;;;0.10;0.10;;;;;;;;;;5103884;28;20280;-33
2023/01/13 08:13:58;;;;;;;4.80;0.37;;;;;;;;;;5100146;28;20206;-37
2023/01/13 08:16:25;;;;;;;0.27;0.27;;;;;;;;;;5090085;28;20208;-34
2023/01/13 08:18:52;;;;;;;0.20;0.20;;;;;;;;;;5093800;28;20200;-35
2023/01/13 08:21:19;;;;;;;0.37;0.30;;;;;;;;;;5084363;28;20216;-37
2023/01/13 08:23:46;;;;;;;0.20;0.20;;;;;;;;;;5087438;28;20204;-34
2023/01/13 08:26:16;;;;;;;0.30;0.30;;;;;;;;;;5100332;28;20298;-33
2023/01/13 08:28:43;;;;;;;0.30;0.30;;;;;;;;;;5091370;28;20276;-36
2023/01/13 08:31:12;;;;;;;0.37;0.30;;;;;;;;;;5089456;28;20311;-34
2023/01/13 08:33:40;;;;;;;0.37;0.27;;;;;;;;;;5105275;28;20212;-32
2023/01/13 08:36:08;;;;;;;0.47;0.20;;;;;;;;;;5094083;28;20205;-38
2023/01/13 08:38:36;;;;;;;0.40;0.33;;;;;;;;;;5089670;28;20207;-34
2023/01/13 08:41:09;;;;;;;0.37;0.20;;;;;;;;;;5101483;28;20235;-37
2023/01/13 08:43:36;;;;;;;0.13;0.10;;;;;;;;;;5101170;28;20209;-39
2023/01/13 08:46:04;;;;;;;0.30;0.30;;;;;;;;;;5085494;28;20209;-32
2023/01/13 08:48:32;;;;;;;0.20;0.20;;;;;;;;;;5092702;28;20231;-35
2023/01/13 08:51:03;;;;;;;0.97;0.30;;;;;;;;;;5087130;28;20221;-35
2023/01/13 08:53:30;;;;;;;0.23;0.20;;;;;;;;;;5096039;28;20209;-36
2023/01/13 08:55:57;;;;;;;0.50;0.20;;;;;;;;;;5098617;28;20218;-38
2023/01/13 08:58:25;;;;;;;0.20;0.20;;;;;;;;;;5104954;28;20204;-40
2023/01/13 09:00:52;;;;;;;0.20;0.20;;;;;;;;;;5089154;28;20196;-39
2023/01/13 09:03:19;;;;;;;0.30;0.30;;;;;;;;;;5093395;28;20208;-30
2023/01/13 09:05:47;;;;;;;0.30;0.30;;;;;;;;;;5093909;28;20203;-39
2023/01/13 09:08:14;;;;;;;0.10;0.10;;;;;;;;;;5083184;28;20234;-36
2023/01/13 09:10:41;;;;;;;0.10;0.10;;;;;;;;;;5094307;28;20208;-36
2023/01/13 09:13:11;;;;;;;0.20;0.20;;;;;;;;;;5097648;28;20215;-37
2023/01/13 09:15:38;;;;;;;1.10;0.30;;;;;;;;;;5094411;28;20710;-31
2023/01/13 09:18:06;;;;;;;0.20;0.20;;;;;;;;;;5107514;28;20196;-36
2023/01/13 09:20:33;;;;;;;0.30;0.30;;;;;;;;;;5093452;28;20201;-38
2023/01/13 09:23:01;;;;;;;0.30;0.13;;;;;;;;;;5088454;28;20200;-31
2023/01/13 09:25:29;;;;;;;0.20;0.20;;;;;;;;;;5088972;28;20304;-39
2023/01/13 09:27:56;;;;;;;0.30;0.30;;;;;;;;;;5092191;28;20220;-36
2023/01/13 09:30:24;;;;;;;0.33;0.20;;;;;;;;;;5091720;28;20215;-34
2023/01/13 09:34:58;;;;;;;0.37;0.37;;;;;;;;;;5106051;28;20208;-36
2023/01/13 09:35:38;;;;;;;1.07;0.50;;;;;;;;;;5100607;28;20232;-34
2023/01/13 09:38:07;;;;;;;0.57;0.57;;;;;;;;;;5083788;28;20197;-33
2023/01/13 09:40:34;;;;;;;0.30;0.30;;;;;;;;;;5094739;28;20246;-35
2023/01/13 09:46:05;;;;;;;0.50;0.50;;;;;;;;;;5087007;28;20205;-42
2023/01/13 09:48:33;;;;;;;0.20;0.20;;;;;;;;;;5093537;28;20631;-33
2023/01/13 09:51:03;;;;;;;1.40;0.20;;;;;;;;;;5104790;28;20216;-36
2023/01/13 09:53:40;;;;;;;0.30;0.27;;;;;;;;;;5110358;28;20208;-38
2023/01/13 09:56:10;;;;;;;0.20;0.20;;;;;;;;;;5086724;28;20216;-36
2023/01/13 09:58:37;;;;;;;0.30;0.30;;;;;;;;;;5078448;28;20214;-35
2023/01/13 10:01:10;;;;;;;0.80;0.33;;;;;;;;;;5089246;28;20220;-39
2023/01/13 10:03:37;;;;;;;0.97;0.30;;;;;;;;;;5098509;28;20205;-35
2023/01/13 10:06:08;;;;;;;0.57;0.20;;;;;;;;;;5081249;28;20207;-34
2023/01/13 10:08:38;;;;;;;2.40;0.63;;;;;;;;;;5109845;28;20211;-33
2023/01/13 10:13:58;;;;;;;1.10;0.47;;;;;;;;;;5083002;28;20200;-37
2023/01/13 10:16:28;;;;;;;2.20;0.40;;;;;;;;;;5089083;28;20204;-36
2023/01/13 10:18:59;;;;;;;2.03;0.40;;;;;;;;;;5104060;28;20187;-34
2023/01/13 10:21:48;;;;;;;0.83;0.50;;;;;;;;;;5113084;28;20224;-43
2023/01/13 10:24:17;;;;;;;1.47;0.50;;;;;;;;;;5066147;28;20218;-36
2023/01/13 10:26:51;;;;;;;0.93;0.50;;;;;;;;;;5110285;28;20259;-35
2023/01/13 10:29:20;;;;;;;0.50;0.50;;;;;;;;;;5096898;28;20212;-37
2023/01/13 10:31:47;;;;;;;0.60;0.50;;;;;;;;;;5087465;28;20231;-35
2023/01/13 10:34:15;;;;;;;1.20;0.50;;;;;;;;;;5092520;28;20200;-37
2023/01/13 10:36:47;;;;;;;0.30;0.30;;;;;;;;;;5071681;28;20254;-32
2023/01/13 10:39:16;;;;;;;0.60;0.30;;;;;;;;;;5098233;28;20208;-37
2023/01/13 10:41:56;;;;;;;1.50;0.20;;;;;;;;;;5075384;28;20237;-39
2023/01/13 10:44:25;;;;;;;1.60;0.37;;;;;;;;;;5079436;28;20232;-38
2023/01/13 10:46:53;;;;;;;0.20;0.10;;;;;;;;;;5089468;28;20209;-35
2023/01/13 10:49:27;;;;;;;0.20;0.20;;;;;;;;;;5079271;28;20530;-35
2023/01/13 10:51:55;;;;;;;2.10;0.37;;;;;;;;;;5075813;28;20227;-32
2023/01/13 10:54:23;;;;;;;1.87;0.50;;;;;;;;;;5093700;28;20223;-43
2023/01/13 10:56:51;;;;;;;1.20;0.30;;;;;;;;;;5092203;28;20215;-37
2023/01/13 10:59:22;;;;;;;1.73;0.40;;;;;;;;;;5082446;28;20198;-35
2023/01/13 11:01:59;;;;;;;0.40;0.40;;;;;;;;;;5083609;28;20221;-32
2023/01/13 11:04:28;;;;;;;1.37;0.40;;;;;;;;;;5082502;28;20197;-36
2023/01/13 11:06:55;;;;;;;1.70;0.40;;;;;;;;;;5081383;28;20287;-36
2023/01/13 11:09:24;;;;;;;1.03;0.30;;;;;;;;;;5082001;28;20216;-34
2023/01/13 11:11:54;;;;;;;3.00;0.50;;;;;;;;;;5090250;28;20228;-35
2023/01/13 11:14:35;;;;;;;1.70;0.50;;;;;;;;;;5086885;28;20412;-31
2023/01/13 11:17:08;;;;;;;0.63;0.40;;;;;;;;;;5087333;28;20204;-39
2023/01/13 11:19:37;;;;;;;0.57;0.57;;;;;;;;;;5092838;28;20272;-36
2023/01/13 11:22:05;;;;;;;0.77;0.40;;;;;;;;;;5080543;28;20311;-37
2023/01/13 11:24:36;;;;;;;0.33;0.33;;;;;;;;;;5078665;28;20417;-35
2023/01/13 11:27:06;;;;;;;0.30;0.30;;;;;;;;;;5097238;28;20196;-36
2023/01/13 11:29:38;;;;;;;0.40;0.30;;;;;;;;;;5090681;28;20224;-34
2023/01/13 11:32:11;;;;;;;1.93;0.30;;;;;;;;;;5085285;28;20304;-31
2023/01/13 11:34:40;;;;;;;1.03;0.20;;;;;;;;;;5078866;28;20197;-32
2023/01/13 11:37:10;;;;;;;0.50;0.37;;;;;;;;;;5073278;28;20212;-41
2023/01/13 11:39:44;;;;;;;1.40;0.20;;;;;;;;;;5083759;28;20213;-37
2023/01/13 11:42:23;;;;;;;2.13;0.40;;;;;;;;;;5093490;28;20220;-38
2023/01/13 11:44:53;;;;;;;0.30;0.20;;;;;;;;;;5087865;28;20211;-33
2023/01/13 11:47:23;;;;;;;0.93;0.30;;;;;;;;;;5096815;28;20205;-34
2023/01/13 11:49:51;;;;;;;0.10;0.10;;;;;;;;;;5090176;28;20217;-35
2023/01/13 11:52:20;;;;;;;0.10;0.10;;;;;;;;;;5089671;28;20217;-36
2023/01/13 11:54:54;;;;;;;0.40;0.20;;;;;;;;;;5089113;28;20207;-35
2023/01/13 11:57:44;;;;;;;0.20;0.20;;;;;;;;;;5086186;28;20270;-41
2023/01/13 12:00:27;;;;;;;0.70;0.30;;;;;;;;;;5068683;28;20209;-34
2023/01/13 12:03:15;;;;;;;2.37;0.30;;;;;;;;;;5097313;28;20216;-32
2023/01/13 12:05:43;;;;;;;0.20;0.20;;;;;;;;;;5094064;28;20193;-35
2023/01/13 12:08:16;;;;;;;0.27;0.13;;;;;;;;;;5084990;28;20649;-32
2023/01/13 12:10:52;;;;;;;0.37;0.30;;;;;;;;;;5081825;28;20189;-40
2023/01/13 12:13:24;;;;;;;0.43;0.40;;;;;;;;;;5082938;28;20192;-41
2023/01/13 12:16:08;;;;;;;1.27;1.17;;;;;;;;;;5078701;28;20259;-35
2023/01/13 12:18:50;;;;;;;0.67;0.67;;;;;;;;;;5101975;28;20203;-37
2023/01/13 12:21:22;;;;;;;0.30;0.30;;;;;;;;;;5089991;28;20216;-37
2023/01/13 12:23:55;;;;;;;2.37;1.20;;;;;;;;;;5084934;28;20283;-37
2023/01/13 12:26:26;;;;;;;2.30;0.73;;;;;;;;;;5093834;28;20294;-38
2023/01/13 12:28:55;;;;;;;0.50;0.50;;;;;;;;;;5096990;28;20255;-36
2023/01/13 12:31:22;;;;;;;0.40;0.40;;;;;;;;;;5082697;28;20233;-38
2023/01/13 12:33:59;;;;;;;0.50;0.50;;;;;;;;;;5094856;28;20256;-35
2023/01/13 12:36:29;;;;;;;0.90;0.60;;;;;;;;;;5082387;28;20197;-35
2023/01/13 12:38:58;;;;;;;0.80;0.30;;;;;;;;;;5085303;28;20216;-32
2023/01/13 12:41:36;;;;;;;0.53;0.50;;;;;;;;;;5089661;28;20243;-38
2023/01/13 12:44:19;;;;;;;0.50;0.30;;;;;;;;;;5096167;27;20207;-32
2023/01/13 12:46:54;;;;;;;0.80;0.80;;;;;;;;;;5094387;28;20188;-38
2023/01/13 12:49:32;;;;;;;0.47;0.47;;;;;;;;;;5089174;28;20293;-35
2023/01/13 12:52:09;;;;;;;0.60;0.60;;;;;;;;;;5082260;28;20409;-32
2023/01/13 12:54:52;;;;;;;2.53;0.50;;;;;;;;;;5078725;28;20215;-34
2023/01/13 12:57:21;;;;;;;0.30;0.30;;;;;;;;;;5091930;28;20201;-34
2023/01/13 13:00:03;;;;;;;1.33;0.40;;;;;;;;;;5081680;28;20202;-32
2023/01/13 13:02:31;;;;;;;1.13;0.50;;;;;;;;;;5094511;28;20315;-37
2023/01/13 13:05:00;;;;;;;0.60;0.33;;;;;;;;;;5080291;28;20204;-32
2023/01/13 13:07:36;;;;;;;2.07;0.37;;;;;;;;;;5091849;28;20211;-38
2023/01/13 13:10:08;;;;;;;0.57;0.40;;;;;;;;;;5090726;28;20296;-33
2023/01/13 13:15:37;;;;;;;0.80;0.40;;;;;;;;;;5088141;28;20209;-33
2023/01/13 13:18:20;;;;;;;2.47;0.40;;;;;;;;;;5084446;28;20204;-31
2023/01/13 13:20:55;;;;;;;0.77;0.40;;;;;;;;;;5086069;28;20192;-35
2023/01/13 13:23:38;;;;;;;0.60;0.30;;;;;;;;;;5085498;28;20236;-29
2023/01/13 13:26:13;;;;;;;1.53;0.70;;;;;;;;;;5089464;28;20200;-39
2023/01/13 13:28:44;;;;;;;0.83;0.67;;;;;;;;;;5084788;28;20197;-38
2023/01/13 13:31:24;;;;;;;1.93;0.80;;;;;;;;;;5082055;28;20224;-38
2023/01/13 13:34:05;;;;;;;2.10;0.60;;;;;;;;;;5085145;28;20212;-33
2023/01/13 13:36:42;;;;;;;2.77;0.50;;;;;;;;;;5080460;28;20204;-36
2023/01/13 13:47:57;;;;;;;1.17;0.50;;;;;;;;;;5066373;28;20211;-34
2023/01/13 13:50:24;;;;;;;1.20;0.70;;;;;;;;;;5087016;28;20220;-36
2023/01/13 13:52:54;;;;;;;1.90;0.70;;;;;;;;;;5080068;28;20228;-33
2023/01/13 13:55:25;;;;;;;1.30;0.70;;;;;;;;;;5091968;28;20494;-35
2023/01/13 13:57:56;;;;;;;1.37;0.80;;;;;;;;;;5086698;28;20200;-36
2023/01/13 14:00:25;;;;;;;1.47;0.63;;;;;;;;;;5082751;28;20201;-34
2023/01/13 14:02:54;;;;;;;5.17;0.83;;;;;;;;;;5089204;28;20224;-32
2023/01/13 14:05:22;;;;;;;1.23;0.80;;;;;;;;;;5092299;28;20208;-33
2023/01/13 14:07:51;;;;;;;3.93;0.80;;;;;;;;;;5082577;28;20197;-40
2023/01/13 14:10:20;;;;;;;2.60;0.80;;;;;;;;;;5081523;28;20228;-33
2023/01/13 14:12:47;;;;;;;2.63;1.00;;;;;;;;;;5085907;28;20215;-36
2023/01/13 14:15:39;;;;;;;2.97;0.83;;;;;;;;;;5087556;28;20211;-38
2023/01/13 14:18:13;;;;;;;2.43;0.73;;;;;;;;;;5073258;28;20215;-41
2023/01/13 14:20:40;;;;;;;3.37;0.80;;;;;;;;;;5089942;28;20678;-29
2023/01/13 14:23:07;;;;;;;2.33;0.70;;;;;;;;;;5085294;28;20288;-32
2023/01/13 14:25:38;;;;;;;2.23;0.80;;;;;;;;;;5090155;28;20211;-34
2023/01/13 14:28:11;;;;;;;2.40;0.50;;;;;;;;;;5081118;28;20206;-37
2023/01/13 14:30:39;;;;;;;2.00;0.50;;;;;;;;;;5089745;28;20819;-36
2023/01/13 14:33:13;;;;;;;1.97;0.73;;;;;;;;;;5092420;28;20203;-33
2023/01/13 14:36:00;;;;;;;5.17;1.03;;;;;;;;;;5074523;28;20196;-33
2023/01/13 14:41:36;;;;;;;2.27;0.80;;;;;;;;;;5088193;28;20292;-34
2023/01/13 14:44:13;;;;;;;2.53;0.67;;;;;;;;;;5083380;28;20218;-32
2023/01/13 14:46:41;;;;;;;1.57;0.70;;;;;;;;;;5090833;28;20215;-33
2023/01/13 14:49:21;;;;;;;0.63;0.53;;;;;;;;;;5091602;28;20204;-32
2023/01/13 14:51:48;;;;;;;1.33;0.60;;;;;;;;;;5092385;28;20228;-37
2023/01/13 14:54:37;;;;;;;0.90;0.57;;;;;;;;;;5078854;28;20296;-40
2023/01/13 14:57:13;;;;;;;3.33;0.63;;;;;;;;;;5089836;28;20201;-35
2023/01/13 14:59:44;;;;;;;2.73;0.57;;;;;;;;;;5086717;28;20207;-35
2023/01/13 15:02:30;;;;;;;2.63;0.67;;;;;;;;;;5103330;28;20237;-39
2023/01/13 15:04:59;;;;;;;2.83;0.70;;;;;;;;;;5091381;28;20215;-37
2023/01/13 15:07:26;;;;;;;3.60;0.90;;;;;;;;;;5086411;28;20206;-36
2023/01/13 15:09:54;;;;;;;3.33;1.00;;;;;;;;;;5094009;28;20224;-36
2023/01/13 15:12:23;;;;;;;5.03;3.03;;;;;;;;;;5084005;28;20227;-42
2023/01/13 15:14:51;;;;;;;2.20;1.77;;;;;;;;;;5082653;28;20670;-32
2023/01/13 15:17:18;;;;;;;2.17;1.40;;;;;;;;;;5085684;28;20291;-33
2023/01/13 15:19:47;;;;;;;2.47;1.03;;;;;;;;;;5082497;28;20692;-33
2023/01/13 15:22:15;;;;;;;1.03;0.70;;;;;;;;;;5092508;28;20240;-32
2023/01/13 15:24:42;;;;;;;1.40;0.60;;;;;;;;;;5111313;28;20666;-41
2023/01/13 15:27:16;;;;;;;2.67;1.13;;;;;;;;;;5101426;28;20200;-35
2023/01/13 15:29:43;;;;;;;3.33;2.53;;;;;;;;;;5084838;28;20219;-38
2023/01/13 15:32:13;;;;;;;2.23;1.10;;;;;;;;;;5091069;28;20226;-34
2023/01/13 15:34:40;;;;;;;3.07;0.90;;;;;;;;;;5091330;28;20250;-34
2023/01/13 15:37:09;;;;;;;2.03;0.80;;;;;;;;;;5082162;28;20202;-38
2023/01/13 15:39:37;;;;;;;1.27;0.97;;;;;;;;;;5091514;28;20198;-31
2023/01/13 15:47:31;;;;;;;2.33;0.77;;;;;;;;;;5090478;28;20200;-37
2023/01/13 15:49:58;;;;;;;4.93;1.30;;;;;;;;;;5091638;28;20221;-35
2023/01/13 15:52:25;;;;;;;2.27;1.00;;;;;;;;;;5087976;28;20251;-40
2023/01/13 15:54:54;;;;;;;0.83;0.70;;;;;;;;;;5102570;28;20212;-32
2023/01/13 15:57:23;;;;;;;1.70;1.10;;;;;;;;;;5097337;28;20201;-39
2023/01/13 15:59:50;;;;;;;1.20;0.87;;;;;;;;;;5088976;28;20192;-35